This is the latest recevied weather packets stored in our database for station/object N6RDS. If no packets are shown the sender has not sent any weather packets the latest 10 day(s).
| Time | Temp. | Humidity | Pressure | Rain* | Wind** | Luminosity | Snow |
|---|---|---|---|---|---|---|---|
| 1777831316 | 20.56° C | 32% | 1026.3 hPa | 0 mm | - | 190 W/m² | - |
| 1777831012 | 19.44° C | 33% | 1026.1 hPa | 0 mm | - | 212 W/m² | - |
| 1777830710 | 20° C | 34% | 1026.3 hPa | 0 mm | - | 193 W/m² | - |
| 1777830406 | 20.56° C | 33% | 1026.1 hPa | 0 mm | - | 130 W/m² | - |
| 1777830103 | 21.11° C | 33% | 1026.4 hPa | 0 mm | - | 802 W/m² | - |
| 1777829798 | 20.56° C | 30% | 1026.6 hPa | 0 mm | - | 775 W/m² | - |
| 1777829495 | 18.89° C | 34% | 1026.4 hPa | 0 mm | - | 752 W/m² | - |
| 1777829192 | 20° C | 33% | 1026.6 hPa | 0 mm | - | 715 W/m² | - |
| 1777828889 | 20.56° C | 31% | 1026.6 hPa | 0 mm | - | 719 W/m² | - |
| 1777828580 | 21.11° C | 31% | 1026.8 hPa | 0 mm | - | 100 W/m² | - |
| 1777828278 | 21.67° C | 31% | 1026.6 hPa | 0 mm | - | 721 W/m² | - |
| 1777827975 | 21.11° C | 31% | 1027 hPa | 0 mm | - | 698 W/m² | - |
| 1777827671 | 20.56° C | 33% | 1026.9 hPa | 0 mm | - | 672 W/m² | - |
| 1777827369 | 18.89° C | 34% | 1026.8 hPa | 0 mm | - | 623 W/m² | - |
| 1777827065 | 18.89° C | 34% | 1026.5 hPa | 0 mm | - | 612 W/m² | - |
| 1777826762 | 18.33° C | 36% | 1027 hPa | 0 mm | - | 216 W/m² | - |
| 1777826458 | 18.89° C | 34% | 1026.8 hPa | 0 mm | - | 582 W/m² | - |
| 1777826150 | 18.89° C | 34% | 1026.8 hPa | 0 mm | - | 570 W/m² | - |
| 1777825847 | 20° C | 34% | 1026.6 hPa | 0 mm | - | 556 W/m² | - |
| 1777825544 | 20° C | 34% | 1026.6 hPa | 0 mm | - | 540 W/m² | - |
| 1777825242 | 20° C | 33% | 1026.8 hPa | 0 mm | - | 525 W/m² | - |
| 1777824938 | 19.44° C | 35% | 1026.8 hPa | 0 mm | - | 513 W/m² | - |
| 1777824634 | 18.89° C | 35% | 1026.8 hPa | 0 mm | - | 497 W/m² | - |
| 1777824332 | 18.33° C | 36% | 1026.9 hPa | 0 mm | - | 481 W/m² | - |
| 1777824027 | 17.78° C | 38% | 1026.9 hPa | 0 mm | - | 465 W/m² | - |
* Rain latest hour (hover to see other rain measurements)
** Current wind speed in m/s (hover to see current wind gust speed)